createdAt,value
2023-01-29T00:02:24.252Z,97.68
2023-01-29T00:05:28.520Z,96.49
2023-01-29T00:08:33.948Z,97.20
2023-01-29T00:11:36.795Z,96.98
2023-01-29T00:14:39.337Z,97.11
2023-01-29T00:17:42.109Z,97.65
2023-01-29T00:20:45.176Z,97.23
2023-01-29T00:23:48.677Z,96.60
2023-01-29T00:26:51.298Z,96.61
2023-01-29T00:30:12.062Z,97.13
2023-01-29T00:33:14.945Z,96.63
2023-01-29T00:36:18.890Z,96.77
2023-01-29T00:39:31.455Z,95.88
2023-01-29T00:42:58.115Z,95.86
2023-01-29T00:46:00.665Z,96.22
2023-01-29T00:49:05.216Z,96.32
2023-01-29T00:52:26.288Z,96.45
2023-01-29T00:55:29.148Z,96.09
2023-01-29T00:58:36.622Z,96.82
2023-01-29T01:01:57.917Z,94.92
2023-01-29T01:05:03.199Z,95.00
2023-01-29T01:08:26.183Z,94.53
2023-01-29T01:11:28.815Z,93.16
2023-01-29T01:14:31.604Z,93.24
2023-01-29T01:17:34.392Z,94.45
2023-01-29T01:20:37.400Z,94.09
2023-01-29T01:23:40.129Z,92.31
2023-01-29T01:26:43.061Z,93.23
2023-01-29T01:29:46.851Z,93.29
2023-01-29T01:32:50.311Z,92.44
2023-01-29T01:35:53.106Z,92.23
2023-01-29T01:38:56.855Z,92.74
2023-01-29T01:41:59.380Z,92.80
2023-01-29T01:45:08.073Z,93.10
2023-01-29T01:48:18.751Z,92.33
2023-01-29T01:51:23.043Z,93.04
2023-01-29T01:54:28.194Z,93.07
2023-01-29T01:57:31.426Z,92.43
2023-01-29T02:00:34.331Z,91.71
2023-01-29T02:04:00.095Z,93.14
2023-01-29T02:07:23.358Z,92.61
2023-01-29T02:10:27.924Z,93.52
2023-01-29T02:13:31.358Z,92.80
2023-01-29T02:16:35.401Z,92.91
2023-01-29T02:19:48.612Z,92.29
2023-01-29T02:22:59.272Z,92.71
2023-01-29T02:26:20.819Z,92.67
2023-01-29T02:29:34.651Z,92.51
2023-01-29T02:32:54.767Z,91.69
2023-01-29T02:36:19.368Z,91.96
2023-01-29T02:39:45.270Z,91.26
2023-01-29T02:43:11.032Z,91.12
2023-01-29T02:46:34.917Z,92.08
2023-01-29T02:49:50.290Z,92.76
2023-01-29T02:53:15.369Z,91.90
2023-01-29T02:56:22.932Z,92.73
2023-01-29T02:59:32.699Z,93.30
2023-01-29T03:02:41.635Z,93.42
2023-01-29T03:06:06.534Z,92.39
2023-01-29T03:09:18.031Z,92.43
2023-01-29T03:12:34.066Z,92.19
2023-01-29T03:15:42.495Z,92.00
2023-01-29T03:18:51.068Z,92.58
2023-01-29T03:21:59.957Z,92.75
2023-01-29T03:25:23.537Z,91.56
2023-01-29T03:28:47.014Z,91.92
2023-01-29T03:32:06.760Z,91.97
2023-01-29T03:35:11.113Z,92.30
2023-01-29T03:38:14.741Z,91.45
2023-01-29T03:41:25.698Z,92.14
2023-01-29T03:44:58.067Z,92.38
2023-01-29T03:48:05.856Z,92.39
2023-01-29T03:51:17.764Z,93.04
2023-01-29T03:54:28.375Z,92.73
2023-01-29T03:57:42.885Z,92.28
2023-01-29T04:00:57.816Z,92.46
2023-01-29T04:04:27.171Z,93.80
2023-01-29T04:07:33.524Z,95.66
2023-01-29T04:10:39.261Z,96.29
2023-01-29T04:13:42.636Z,96.04
2023-01-29T04:16:50.317Z,95.75
2023-01-29T04:19:54.031Z,96.22
2023-01-29T04:22:56.944Z,96.70
2023-01-29T04:26:29.247Z,96.76
2023-01-29T04:29:43.530Z,96.60
2023-01-29T04:33:05.233Z,97.01
2023-01-29T04:36:20.449Z,96.39
2023-01-29T04:39:33.117Z,96.62
2023-01-29T04:43:22.508Z,96.60
2023-01-29T04:47:05.194Z,95.19
2023-01-29T04:50:24.517Z,95.34
2023-01-29T04:53:37.334Z,95.00
2023-01-29T04:56:54.729Z,94.79
2023-01-29T05:00:04.049Z,93.66
2023-01-29T05:03:09.743Z,94.12
2023-01-29T05:06:12.574Z,94.81
2023-01-29T05:09:16.623Z,93.87
2023-01-29T05:12:19.654Z,93.57
2023-01-29T05:15:26.834Z,92.94
2023-01-29T05:18:30.151Z,92.33
2023-01-29T05:21:33.112Z,93.32
2023-01-29T05:24:37.295Z,93.07
2023-01-29T05:27:58.689Z,93.46
2023-01-29T05:31:01.458Z,93.71
2023-01-29T05:34:04.357Z,92.55
2023-01-29T05:37:07.214Z,92.48
2023-01-29T05:40:10.750Z,91.82
2023-01-29T05:43:24.168Z,91.18
2023-01-29T05:46:27.054Z,92.26
2023-01-29T05:49:29.822Z,91.28
2023-01-29T05:52:32.698Z,90.89
2023-01-29T05:55:35.263Z,90.54
2023-01-29T05:58:39.990Z,90.17
2023-01-29T06:01:42.869Z,89.60
2023-01-29T06:04:45.756Z,90.16
2023-01-29T06:07:48.323Z,90.37
2023-01-29T06:10:51.171Z,89.76
2023-01-29T06:13:53.880Z,89.46
2023-01-29T06:16:56.689Z,89.70
2023-01-29T06:19:59.358Z,88.64
2023-01-29T06:23:02.267Z,88.67
2023-01-29T06:26:07.315Z,89.88
2023-01-29T06:29:10.295Z,89.10
2023-01-29T06:32:13.098Z,89.58
2023-01-29T06:35:18.083Z,89.18
2023-01-29T06:38:20.754Z,89.11
2023-01-29T06:41:25.761Z,88.69
2023-01-29T06:44:28.541Z,88.73
2023-01-29T06:47:31.478Z,88.29
2023-01-29T06:50:34.119Z,88.60
2023-01-29T06:53:38.397Z,89.13
2023-01-29T06:56:40.972Z,89.09
2023-01-29T06:59:43.791Z,88.47
2023-01-29T07:02:49.636Z,87.68
2023-01-29T07:05:53.049Z,89.04
2023-01-29T07:08:56.120Z,89.01
2023-01-29T07:11:58.994Z,88.57
2023-01-29T07:15:01.508Z,88.30
2023-01-29T07:18:12.042Z,88.17
2023-01-29T07:21:14.995Z,88.64
2023-01-29T07:24:17.866Z,87.64
2023-01-29T07:27:20.450Z,88.15
2023-01-29T07:30:23.331Z,88.02
2023-01-29T07:33:26.228Z,88.41
2023-01-29T07:36:29.863Z,87.26
2023-01-29T07:39:33.023Z,86.24
2023-01-29T07:42:36.373Z,86.17
2023-01-29T07:45:40.001Z,86.08
2023-01-29T07:48:42.970Z,83.97
2023-01-29T07:51:45.518Z,82.72
2023-01-29T07:54:48.592Z,84.12
2023-01-29T07:58:02.975Z,82.23
2023-01-29T08:01:10.329Z,81.38
2023-01-29T08:04:13.227Z,81.88
2023-01-29T08:07:15.827Z,80.77
2023-01-29T08:10:19.410Z,80.88
2023-01-29T08:13:22.281Z,81.67
2023-01-29T08:16:25.124Z,81.66
2023-01-29T08:19:27.824Z,80.95
2023-01-29T08:22:30.682Z,79.61
2023-01-29T08:25:34.146Z,79.08
2023-01-29T08:28:38.852Z,78.63
2023-01-29T08:31:41.515Z,78.21
2023-01-29T08:34:44.843Z,77.04
2023-01-29T08:37:59.501Z,78.16
2023-01-29T08:41:02.699Z,78.50
2023-01-29T08:44:05.538Z,69.42
2023-01-29T08:47:08.434Z,72.71
2023-01-29T08:50:11.659Z,72.66
2023-01-29T08:53:15.074Z,67.47
2023-01-29T08:56:17.703Z,66.31
2023-01-29T08:59:22.913Z,70.50
2023-01-29T09:02:25.646Z,70.28
2023-01-29T09:05:28.940Z,71.59
2023-01-29T09:08:31.514Z,72.50
2023-01-29T09:11:34.363Z,72.05
2023-01-29T09:14:37.104Z,72.83
2023-01-29T09:17:41.072Z,73.82
2023-01-29T09:20:43.645Z,75.65
2023-01-29T09:23:46.573Z,74.00
2023-01-29T09:26:49.843Z,74.98
2023-01-29T09:29:52.760Z,74.84
2023-01-29T09:32:55.473Z,75.17
2023-01-29T09:35:58.489Z,73.79
2023-01-29T09:39:01.086Z,74.86
2023-01-29T09:42:12.580Z,73.73
2023-01-29T09:45:21.344Z,74.74
2023-01-29T09:48:28.905Z,73.61
2023-01-29T09:51:35.724Z,73.51
2023-01-29T09:54:53.820Z,74.92
2023-01-29T10:01:09.062Z,74.19
2023-01-29T10:04:45.152Z,73.25
2023-01-29T10:08:06.532Z,71.51
2023-01-29T10:11:17.472Z,72.18
2023-01-29T10:14:55.544Z,72.62
2023-01-29T10:18:17.047Z,70.90
2023-01-29T10:21:31.568Z,71.59
2023-01-29T10:24:39.347Z,70.63
2023-01-29T10:27:48.170Z,73.60
2023-01-29T10:30:58.656Z,74.59
2023-01-29T10:34:04.880Z,72.06
2023-01-29T10:37:24.426Z,73.35
2023-01-29T10:40:33.144Z,72.13
2023-01-29T10:44:06.844Z,72.05
2023-01-29T10:47:24.676Z,72.21
2023-01-29T10:50:39.589Z,73.26
2023-01-29T10:54:21.286Z,71.36
2023-01-29T10:57:56.654Z,70.06
2023-01-29T11:01:00.648Z,71.51
2023-01-29T11:04:04.915Z,70.66
2023-01-29T11:07:08.119Z,70.54
2023-01-29T11:10:15.087Z,71.31
2023-01-29T11:13:18.311Z,71.02
2023-01-29T11:16:21.387Z,71.07
2023-01-29T11:19:38.314Z,71.82
2023-01-29T11:22:54.060Z,71.53
2023-01-29T11:25:58.043Z,71.23
2023-01-29T11:29:00.894Z,72.30
2023-01-29T11:32:05.926Z,72.70
2023-01-29T11:35:14.764Z,72.96
2023-01-29T11:38:28.485Z,70.87
2023-01-29T11:41:42.978Z,72.34
2023-01-29T11:44:45.572Z,72.33
2023-01-29T11:47:54.268Z,72.58
2023-01-29T11:51:00.808Z,71.47
2023-01-29T11:54:04.725Z,72.58
2023-01-29T11:57:20.170Z,72.74
2023-01-29T12:00:25.413Z,73.56
2023-01-29T12:03:39.687Z,74.78
2023-01-29T12:06:42.900Z,73.35
2023-01-29T12:09:54.823Z,74.81
2023-01-29T12:13:09.838Z,73.37
2023-01-29T12:16:29.706Z,74.61
2023-01-29T12:19:50.124Z,75.85
2023-01-29T12:23:08.830Z,76.67
2023-01-29T12:26:16.192Z,76.15
2023-01-29T12:29:38.077Z,76.39
2023-01-29T12:32:49.948Z,77.79
2023-01-29T12:36:09.251Z,77.47
2023-01-29T12:39:16.760Z,77.83
2023-01-29T12:42:22.724Z,77.31
2023-01-29T12:45:26.631Z,77.64
2023-01-29T12:48:39.103Z,77.72
2023-01-29T12:51:49.088Z,77.89
2023-01-29T12:55:01.843Z,78.22
2023-01-29T12:58:09.959Z,78.51
2023-01-29T13:01:16.895Z,78.33
2023-01-29T13:04:40.517Z,78.48
2023-01-29T13:07:47.916Z,79.22
2023-01-29T13:10:53.183Z,77.54
2023-01-29T13:14:23.259Z,78.49
2023-01-29T13:17:43.342Z,77.97
2023-01-29T13:20:48.418Z,78.44
2023-01-29T13:24:00.598Z,78.30
2023-01-29T13:27:04.045Z,78.52
2023-01-29T13:30:08.014Z,78.06
2023-01-29T13:33:23.687Z,78.68
2023-01-29T13:36:29.192Z,77.98
2023-01-29T13:39:37.487Z,78.96
2023-01-29T13:42:43.820Z,78.09
2023-01-29T13:45:48.076Z,76.60
2023-01-29T13:48:52.401Z,77.06
2023-01-29T13:51:55.549Z,77.49
2023-01-29T13:55:04.916Z,77.95
2023-01-29T13:58:14.173Z,76.23
2023-01-29T14:01:21.170Z,76.76
2023-01-29T14:04:26.880Z,78.16
2023-01-29T14:07:49.974Z,79.17
2023-01-29T14:11:17.931Z,78.93
2023-01-29T14:14:48.693Z,78.39
2023-01-29T14:17:55.711Z,80.07
2023-01-29T14:21:17.850Z,79.75
2023-01-29T14:24:22.535Z,80.64
2023-01-29T14:27:25.865Z,79.55
2023-01-29T14:30:33.071Z,78.89
2023-01-29T14:33:38.537Z,79.86
2023-01-29T14:36:42.481Z,80.16
2023-01-29T14:39:50.225Z,79.99
2023-01-29T14:43:05.286Z,79.62
2023-01-29T14:46:42.345Z,79.96
2023-01-29T14:49:56.643Z,79.54
2023-01-29T14:53:23.193Z,80.04
2023-01-29T14:56:37.472Z,80.04
2023-01-29T15:00:01.025Z,81.02
2023-01-29T15:03:17.269Z,80.74
2023-01-29T15:06:44.848Z,80.02
2023-01-29T15:10:22.007Z,80.80
2023-01-29T15:13:33.111Z,81.34
2023-01-29T15:16:45.213Z,81.02
2023-01-29T15:19:48.972Z,81.58
2023-01-29T15:22:51.955Z,81.10
2023-01-29T15:25:57.625Z,81.09
2023-01-29T15:29:04.590Z,81.71
2023-01-29T15:32:08.237Z,81.61
2023-01-29T15:35:34.258Z,82.03
2023-01-29T15:38:36.875Z,80.39
2023-01-29T15:41:39.912Z,82.58
2023-01-29T15:44:46.537Z,83.08
2023-01-29T15:47:49.936Z,84.33
2023-01-29T15:50:54.439Z,84.48
2023-01-29T15:53:59.200Z,85.07
2023-01-29T15:57:02.821Z,86.36
2023-01-29T16:00:08.151Z,87.36
2023-01-29T16:03:15.517Z,87.68
2023-01-29T16:06:18.978Z,87.43
2023-01-29T16:09:23.961Z,87.63
2023-01-29T16:12:28.731Z,88.59
2023-01-29T16:15:33.073Z,88.98
2023-01-29T16:18:47.746Z,89.33
2023-01-29T16:22:00.193Z,89.27
2023-01-29T16:25:11.354Z,89.36
2023-01-29T16:28:14.574Z,88.75
2023-01-29T16:31:26.253Z,88.47
2023-01-29T16:34:40.353Z,89.50
2023-01-29T16:37:48.113Z,89.36
2023-01-29T16:41:05.127Z,89.65
2023-01-29T16:44:17.279Z,89.93
2023-01-29T16:47:38.906Z,90.64
2023-01-29T16:50:54.227Z,90.53
2023-01-29T16:54:11.882Z,90.67
2023-01-29T16:57:18.365Z,90.43
2023-01-29T17:00:23.097Z,90.23
2023-01-29T17:03:27.452Z,90.20
2023-01-29T17:06:31.981Z,89.85
2023-01-29T17:09:37.507Z,89.46
2023-01-29T17:12:40.574Z,89.50
2023-01-29T17:15:43.779Z,88.91
2023-01-29T17:18:47.743Z,88.66
2023-01-29T17:21:51.332Z,88.21
2023-01-29T17:24:54.380Z,88.10
2023-01-29T17:28:00.736Z,88.27
2023-01-29T17:31:06.505Z,89.03
2023-01-29T17:34:14.771Z,89.96
2023-01-29T17:37:17.809Z,90.69
2023-01-29T17:40:37.788Z,91.44
2023-01-29T17:43:40.663Z,91.20
2023-01-29T17:46:43.839Z,91.11
2023-01-29T17:49:46.986Z,92.45
2023-01-29T17:52:50.789Z,93.38
2023-01-29T17:55:53.653Z,92.75
2023-01-29T17:58:56.800Z,94.27
2023-01-29T18:01:59.891Z,95.96
2023-01-29T18:05:03.035Z,95.47
2023-01-29T18:08:19.900Z,95.79
2023-01-29T18:11:23.591Z,96.20
2023-01-29T18:14:26.388Z,96.61
2023-01-29T18:17:29.521Z,97.13
2023-01-29T18:20:36.741Z,98.37
2023-01-29T18:23:40.532Z,98.45
2023-01-29T18:26:43.595Z,97.68
2023-01-29T18:29:46.706Z,96.81
2023-01-29T18:32:50.323Z,96.55
2023-01-29T18:35:55.192Z,96.55
2023-01-29T18:38:58.266Z,96.71
2023-01-29T18:42:01.453Z,96.98
2023-01-29T18:45:04.617Z,97.79
2023-01-29T18:48:08.428Z,97.70
2023-01-29T18:51:11.692Z,97.63
2023-01-29T18:54:14.817Z,97.88
2023-01-29T18:58:26.869Z,98.24
2023-01-29T19:00:40.916Z,98.30
2023-01-29T19:03:43.735Z,98.22
2023-01-29T19:06:46.538Z,98.15
2023-01-29T19:09:50.643Z,98.70
2023-01-29T19:12:53.746Z,98.76
2023-01-29T19:15:56.795Z,98.65
2023-01-29T19:19:00.191Z,98.98
2023-01-29T19:22:04.446Z,99.35
2023-01-29T19:25:08.254Z,99.32
2023-01-29T19:28:11.466Z,99.62
2023-01-29T19:31:14.744Z,99.72
2023-01-29T19:34:17.976Z,100.00
2023-01-29T19:37:21.373Z,100.00
2023-01-29T19:40:24.392Z,100.00
2023-01-29T19:43:33.413Z,100.00
2023-01-29T19:46:36.600Z,100.00
2023-01-29T19:49:40.691Z,100.00
2023-01-29T19:52:52.027Z,100.00
2023-01-29T19:56:09.824Z,100.00
2023-01-29T19:59:13.220Z,100.00
2023-01-29T20:02:16.519Z,100.00
2023-01-29T20:05:20.587Z,100.00
2023-01-29T20:08:24.061Z,100.00
2023-01-29T20:11:27.128Z,100.00
2023-01-29T20:14:29.852Z,100.00
2023-01-29T20:17:33.035Z,100.00
2023-01-29T20:20:39.706Z,100.00
2023-01-29T20:23:45.668Z,100.00
2023-01-29T20:26:49.301Z,100.00
2023-01-29T20:29:52.887Z,100.00
2023-01-29T20:32:55.668Z,100.00
2023-01-29T20:36:01.151Z,100.00
2023-01-29T20:39:04.452Z,100.00
2023-01-29T20:42:07.538Z,100.00
2023-01-29T20:45:10.505Z,100.00
2023-01-29T20:48:13.935Z,100.00
2023-01-29T20:51:17.795Z,100.00
2023-01-29T20:54:21.007Z,100.00
2023-01-29T20:57:23.937Z,100.00
2023-01-29T21:00:26.928Z,100.00
2023-01-29T21:03:29.928Z,100.00
2023-01-29T21:06:32.961Z,100.00
2023-01-29T21:09:35.978Z,100.00
2023-01-29T21:12:39.085Z,100.00
2023-01-29T21:15:43.001Z,100.00
2023-01-29T21:18:46.008Z,100.00
2023-01-29T21:21:49.062Z,100.00
2023-01-29T21:24:52.299Z,100.00
2023-01-29T21:27:54.943Z,100.00
2023-01-29T21:31:09.502Z,100.00
2023-01-29T21:34:12.380Z,100.00
2023-01-29T21:37:15.230Z,100.00
2023-01-29T21:40:18.356Z,100.00
2023-01-29T21:43:21.372Z,100.00
2023-01-29T21:46:23.989Z,100.00
2023-01-29T21:49:27.879Z,100.00
2023-01-29T21:52:30.513Z,100.00
2023-01-29T21:55:34.016Z,100.00
2023-01-29T21:58:37.148Z,100.00
2023-01-29T22:01:40.143Z,100.00
2023-01-29T22:04:43.154Z,100.00
2023-01-29T22:07:45.783Z,100.00
2023-01-29T22:10:49.027Z,100.00
2023-01-29T22:13:51.731Z,100.00
2023-01-29T22:16:54.744Z,100.00
2023-01-29T22:19:57.307Z,100.00
2023-01-29T22:23:00.735Z,100.00
2023-01-29T22:26:05.214Z,100.00
2023-01-29T22:29:08.148Z,100.00
2023-01-29T22:32:11.664Z,100.00
2023-01-29T22:35:14.606Z,100.00
2023-01-29T22:38:17.297Z,100.00
2023-01-29T22:41:20.087Z,100.00
2023-01-29T22:44:22.917Z,100.00
2023-01-29T22:47:25.858Z,100.00
2023-01-29T22:50:28.452Z,100.00
2023-01-29T22:53:31.647Z,100.00
2023-01-29T22:56:34.274Z,100.00
2023-01-29T22:59:37.527Z,100.00
2023-01-29T23:02:40.193Z,100.00
2023-01-29T23:05:43.853Z,100.00
2023-01-29T23:08:46.432Z,100.00
2023-01-29T23:11:49.358Z,100.00
2023-01-29T23:14:51.946Z,100.00
2023-01-29T23:17:54.788Z,100.00
2023-01-29T23:20:58.003Z,100.00
2023-01-29T23:24:01.407Z,100.00
2023-01-29T23:27:16.533Z,100.00
2023-01-29T23:30:19.708Z,100.00
2023-01-29T23:33:22.609Z,100.00
2023-01-29T23:36:25.469Z,100.00
2023-01-29T23:39:28.000Z,100.00
2023-01-29T23:42:30.801Z,100.00
2023-01-29T23:45:33.546Z,100.00
2023-01-29T23:48:36.657Z,100.00
2023-01-29T23:51:39.350Z,100.00
2023-01-29T23:54:42.309Z,100.00
2023-01-29T23:57:44.939Z,100.00
